Time;durP1;ratioP1;P1;durP2;ratioP2;P2;SDS_P1;SDS_P2;PMS_P1;PMS_P2;Temp;Humidity;BMP_temperature;BMP_pressure;BME280_temperature;BME280_humidity;BME280_pressure;Samples;Min_cycle;Max_cycle;Signal;HPM_P1;HPM_P2
2023/07/31 00:02:13;;;;;;;22.23;5.18;;;17.50;99.90;;;;;;5053267;28;20035;-68
2023/07/31 00:04:38;;;;;;;24.10;6.35;;;17.50;99.90;;;;;;5054510;28;20029;-67
2023/07/31 00:07:06;;;;;;;24.70;5.95;;;17.50;99.90;;;;;;5054075;28;20128;-68
2023/07/31 00:09:35;;;;;;;20.58;5.63;;;17.50;99.90;;;;;;5060283;28;20028;-68
2023/07/31 00:12:00;;;;;;;21.88;5.20;;;17.60;99.90;;;;;;5073661;28;20032;-67
2023/07/31 00:14:26;;;;;;;21.77;5.75;;;17.60;99.90;;;;;;5073993;28;20025;-67
2023/07/31 00:16:51;;;;;;;22.92;5.82;;;17.60;99.90;;;;;;5073990;28;20405;-67
2023/07/31 00:19:17;;;;;;;23.75;5.32;;;17.60;99.90;;;;;;5066991;28;20116;-67
2023/07/31 00:21:44;;;;;;;19.98;5.05;;;17.60;99.90;;;;;;5052353;28;20028;-68
2023/07/31 00:24:10;;;;;;;24.88;5.95;;;17.60;99.90;;;;;;5051535;28;20032;-68
2023/07/31 00:26:35;;;;;;;18.30;5.15;;;17.70;99.90;;;;;;5052533;28;20043;-67
2023/07/31 00:29:01;;;;;;;23.38;5.57;;;17.70;99.90;;;;;;5052475;28;20373;-66
2023/07/31 00:31:27;;;;;;;20.75;6.50;;;17.70;99.90;;;;;;5052602;28;20028;-67
2023/07/31 00:33:52;;;;;;;28.02;7.35;;;17.70;99.90;;;;;;5052405;28;20116;-67
2023/07/31 00:36:18;;;;;;;27.55;6.82;;;17.70;99.90;;;;;;5052098;28;20164;-67
2023/07/31 00:38:44;;;;;;;27.17;7.95;;;17.60;99.90;;;;;;5051688;28;20028;-67
2023/07/31 00:41:09;;;;;;;33.83;7.57;;;17.60;99.90;;;;;;5052226;28;20032;-67
2023/07/31 00:43:35;;;;;;;33.53;7.82;;;17.60;99.90;;;;;;5052103;28;20050;-67
2023/07/31 00:46:01;;;;;;;33.40;8.25;;;17.70;99.90;;;;;;5052093;28;20025;-67
2023/07/31 00:48:27;;;;;;;30.88;7.82;;;17.70;99.90;;;;;;5051644;28;20056;-66
2023/07/31 00:50:53;;;;;;;25.52;7.28;;;17.70;99.90;;;;;;5052170;28;20064;-69
2023/07/31 00:53:18;;;;;;;30.60;7.95;;;17.70;99.90;;;;;;5051757;28;20067;-68
2023/07/31 00:55:44;;;;;;;29.67;8.63;;;17.70;99.90;;;;;;5052232;28;20025;-67
2023/07/31 00:58:10;;;;;;;30.58;8.32;;;17.70;99.90;;;;;;5052160;28;20431;-67
2023/07/31 01:00:36;;;;;;;33.85;8.60;;;17.70;99.90;;;;;;5051882;28;20120;-67
2023/07/31 01:03:01;;;;;;;36.17;9.35;;;17.70;99.90;;;;;;5051801;28;20021;-68
2023/07/31 01:05:55;;;;;;;31.48;9.38;;;17.70;99.90;;;;;;5051838;28;20066;-67
2023/07/31 01:08:23;;;;;;;36.38;9.55;;;17.70;99.90;;;;;;5051664;28;20033;-67
2023/07/31 01:10:55;;;;;;;27.95;8.90;;;17.70;99.90;;;;;;5051856;28;20108;-65
2023/07/31 01:13:21;;;;;;;36.15;9.43;;;17.70;99.90;;;;;;5051359;28;20055;-66
2023/07/31 01:15:47;;;;;;;33.40;8.88;;;17.70;99.90;;;;;;5051309;28;20037;-66
2023/07/31 01:18:12;;;;;;;28.17;8.75;;;17.70;99.90;;;;;;5051524;28;20120;-67
2023/07/31 01:20:42;;;;;;;33.85;9.40;;;17.70;99.90;;;;;;5051648;28;20033;-67
2023/07/31 01:23:52;;;;;;;34.72;9.75;;;17.70;99.90;;;;;;5052459;28;20086;-67
2023/07/31 01:26:29;;;;;;;32.67;9.30;;;17.70;99.90;;;;;;5051101;28;20041;-67
2023/07/31 01:29:03;;;;;;;35.10;8.98;;;17.60;99.90;;;;;;5051900;28;20037;-67
2023/07/31 01:31:30;;;;;;;33.03;9.20;;;17.60;99.90;;;;;;5051952;28;20167;-67
2023/07/31 01:33:59;;;;;;;38.10;9.13;;;17.50;99.90;;;;;;5051825;28;20089;-67
2023/07/31 01:36:26;;;;;;;34.08;9.68;;;17.50;99.90;;;;;;5051391;28;20040;-67
2023/07/31 01:38:51;;;;;;;34.63;9.40;;;17.50;99.90;;;;;;5050910;28;20393;-67
2023/07/31 01:41:20;;;;;;;32.25;9.27;;;17.50;99.90;;;;;;5052703;28;20029;-67
2023/07/31 01:43:46;;;;;;;32.22;8.27;;;17.50;99.90;;;;;;5052560;28;20110;-67
2023/07/31 01:46:12;;;;;;;35.25;8.80;;;17.50;99.90;;;;;;5052657;28;20036;-66
2023/07/31 01:48:37;;;;;;;30.85;8.63;;;17.50;99.90;;;;;;5052546;28;20041;-66
2023/07/31 01:51:03;;;;;;;28.55;7.72;;;17.50;99.90;;;;;;5052385;28;20024;-67
2023/07/31 01:53:30;;;;;;;31.50;8.52;;;17.60;99.90;;;;;;5052451;28;20036;-66
2023/07/31 01:55:56;;;;;;;29.15;7.90;;;17.60;99.90;;;;;;5052139;28;20108;-67
2023/07/31 01:58:22;;;;;;;29.55;7.93;;;17.50;99.90;;;;;;5052366;28;20433;-66
2023/07/31 02:00:47;;;;;;;29.65;8.40;;;17.50;99.90;;;;;;5052390;28;20475;-67
2023/07/31 02:03:13;;;;;;;27.45;7.38;;;17.50;99.90;;;;;;5052305;28;20076;-67
2023/07/31 02:05:46;;;;;;;29.63;8.45;;;17.50;99.90;;;;;;5051983;28;20025;-67
2023/07/31 02:08:11;;;;;;;31.33;7.68;;;17.50;99.90;;;;;;5050953;28;20453;-66
2023/07/31 02:10:37;;;;;;;33.65;8.40;;;17.50;99.90;;;;;;5052161;28;20120;-66
2023/07/31 02:13:03;;;;;;;33.15;8.27;;;17.50;99.90;;;;;;5052564;28;20354;-67
2023/07/31 02:15:29;;;;;;;27.45;8.07;;;17.60;99.90;;;;;;5052049;28;20066;-64
2023/07/31 02:17:55;;;;;;;25.88;7.75;;;17.60;99.90;;;;;;5051964;28;20079;-66
2023/07/31 02:20:21;;;;;;;33.88;9.18;;;17.60;99.90;;;;;;5052382;28;20032;-66
2023/07/31 02:22:46;;;;;;;33.47;7.90;;;17.60;99.90;;;;;;5051900;28;20033;-65
2023/07/31 02:25:12;;;;;;;33.40;8.63;;;17.60;99.90;;;;;;5052249;28;20188;-66
2023/07/31 02:27:38;;;;;;;34.13;9.02;;;17.60;99.90;;;;;;5056011;28;20045;-67
2023/07/31 02:30:03;;;;;;;29.90;7.93;;;17.60;99.90;;;;;;5056286;28;20044;-67
2023/07/31 02:32:29;;;;;;;27.75;7.93;;;17.60;99.90;;;;;;5056205;28;20033;-66
2023/07/31 02:34:54;;;;;;;29.45;7.32;;;17.60;99.90;;;;;;5055963;28;20028;-66
2023/07/31 02:37:20;;;;;;;34.67;8.07;;;17.60;99.90;;;;;;5056085;28;20048;-66
2023/07/31 02:39:45;;;;;;;30.38;8.13;;;17.60;99.90;;;;;;5055990;28;20040;-66
2023/07/31 02:42:11;;;;;;;28.42;6.93;;;17.60;99.90;;;;;;5056079;28;20032;-67
2023/07/31 02:44:37;;;;;;;28.15;7.57;;;17.60;99.90;;;;;;5056078;28;20021;-66
2023/07/31 02:47:03;;;;;;;29.75;7.93;;;17.60;99.90;;;;;;5055525;28;20044;-66
2023/07/31 02:49:28;;;;;;;22.85;6.90;;;17.60;99.90;;;;;;5055901;28;20123;-66
2023/07/31 02:51:54;;;;;;;26.67;7.82;;;17.60;99.90;;;;;;5055814;28;20455;-65
2023/07/31 02:54:21;;;;;;;26.73;7.10;;;17.60;99.90;;;;;;5055663;28;20044;-64
2023/07/31 02:56:47;;;;;;;29.35;7.47;;;17.60;99.90;;;;;;5055806;28;20112;-64
2023/07/31 02:59:13;;;;;;;29.20;7.70;;;17.60;99.90;;;;;;5055834;28;20056;-65
2023/07/31 03:01:38;;;;;;;27.38;7.47;;;17.60;99.90;;;;;;5055468;28;20065;-65
2023/07/31 03:04:04;;;;;;;32.70;8.05;;;17.60;99.90;;;;;;5054954;28;20036;-66
2023/07/31 03:06:29;;;;;;;25.38;7.07;;;17.60;99.90;;;;;;5055206;28;20116;-64
2023/07/31 03:08:55;;;;;;;28.27;7.47;;;17.70;99.90;;;;;;5055207;28;20044;-66
2023/07/31 03:11:21;;;;;;;25.52;7.30;;;17.70;99.90;;;;;;5055377;28;20032;-66
2023/07/31 03:13:46;;;;;;;25.20;7.57;;;17.70;99.90;;;;;;5055311;28;20053;-66
2023/07/31 03:16:12;;;;;;;27.10;7.28;;;17.60;99.90;;;;;;5055337;28;20104;-67
2023/07/31 03:18:37;;;;;;;27.83;7.72;;;17.60;99.90;;;;;;5054851;28;20033;-66
2023/07/31 03:21:04;;;;;;;27.70;8.18;;;17.60;99.90;;;;;;5055316;28;20028;-66
2023/07/31 03:23:30;;;;;;;26.17;7.20;;;17.60;99.90;;;;;;5055230;28;20029;-66
2023/07/31 03:26:01;;;;;;;29.92;8.75;;;17.60;99.90;;;;;;5055013;28;20025;-65
2023/07/31 03:28:27;;;;;;;27.70;7.15;;;17.60;99.90;;;;;;5055273;28;20064;-66
2023/07/31 03:30:53;;;;;;;28.45;8.15;;;17.60;99.90;;;;;;5055162;28;20453;-67
2023/07/31 03:33:19;;;;;;;28.20;8.75;;;17.60;99.90;;;;;;5054937;28;20112;-66
2023/07/31 03:35:44;;;;;;;26.88;7.63;;;17.70;99.90;;;;;;5053993;28;20108;-66
2023/07/31 03:38:10;;;;;;;33.78;8.90;;;17.60;99.90;;;;;;5055061;28;20025;-67
2023/07/31 03:40:35;;;;;;;33.60;8.13;;;17.60;99.90;;;;;;5055106;28;20108;-67
2023/07/31 03:43:01;;;;;;;38.08;8.35;;;17.60;99.90;;;;;;5054732;28;20062;-67
2023/07/31 03:45:27;;;;;;;29.95;9.05;;;17.50;99.90;;;;;;5055126;28;20044;-67
2023/07/31 03:47:54;;;;;;;31.38;9.05;;;17.50;99.90;;;;;;5054571;28;20392;-66
2023/07/31 03:50:20;;;;;;;32.92;8.82;;;17.50;99.90;;;;;;5054949;28;20029;-67
2023/07/31 03:52:45;;;;;;;32.30;8.75;;;17.50;99.90;;;;;;5054909;28;20385;-67
2023/07/31 03:55:11;;;;;;;34.28;8.80;;;17.40;99.90;;;;;;5054707;28;20029;-67
2023/07/31 03:57:36;;;;;;;34.78;8.23;;;17.40;99.90;;;;;;5054803;28;20118;-66
2023/07/31 04:00:02;;;;;;;31.13;9.65;;;17.40;99.90;;;;;;5055118;28;20043;-66
2023/07/31 04:02:28;;;;;;;36.38;10.60;;;17.30;99.90;;;;;;5054720;28;20021;-67
2023/07/31 04:04:53;;;;;;;23.48;6.68;;;17.30;99.90;;;;;;5054618;28;20021;-66
2023/07/31 04:07:19;;;;;;;36.45;9.50;;;17.30;99.90;;;;;;5054390;28;20052;-67
2023/07/31 04:09:44;;;;;;;31.58;9.05;;;17.30;99.90;;;;;;5054611;28;20031;-67
2023/07/31 04:12:10;;;;;;;37.80;9.30;;;17.40;99.90;;;;;;5054516;28;20068;-66
2023/07/31 04:14:35;;;;;;;32.40;8.30;;;17.30;99.90;;;;;;5054540;28;20056;-66
2023/07/31 04:17:01;;;;;;;31.00;10.18;;;17.40;99.90;;;;;;5054661;28;20025;-66
2023/07/31 04:19:27;;;;;;;31.42;10.23;;;17.40;99.90;;;;;;5054467;28;20032;-66
2023/07/31 04:21:52;;;;;;;33.97;9.38;;;17.50;99.90;;;;;;5053197;28;20064;-66
2023/07/31 04:24:24;;;;;;;30.48;9.80;;;17.50;99.90;;;;;;5054404;28;20056;-66
2023/07/31 04:26:52;;;;;;;25.13;6.63;;;17.50;99.90;;;;;;5054343;28;20035;-66
2023/07/31 04:29:18;;;;;;;21.48;6.53;;;17.50;99.90;;;;;;5053912;28;20108;-66
2023/07/31 04:31:44;;;;;;;22.85;6.22;;;17.50;99.90;;;;;;5053748;28;20116;-66
2023/07/31 04:34:09;;;;;;;16.35;5.88;;;17.50;99.90;;;;;;5054159;28;20124;-65
2023/07/31 04:36:35;;;;;;;23.98;11.27;;;17.40;99.90;;;;;;5054005;28;20022;-66
2023/07/31 04:39:01;;;;;;;19.23;5.63;;;17.40;99.90;;;;;;5053836;28;20051;-67
2023/07/31 04:41:27;;;;;;;19.08;6.45;;;17.40;99.90;;;;;;5052633;28;20075;-67
2023/07/31 04:43:53;;;;;;;18.15;6.28;;;17.30;99.90;;;;;;5053984;28;20032;-68
2023/07/31 04:46:19;;;;;;;17.35;6.47;;;17.40;99.90;;;;;;5053562;28;20139;-68
2023/07/31 04:48:44;;;;;;;13.00;4.13;;;17.30;99.90;;;;;;5053523;28;20056;-66
2023/07/31 04:51:10;;;;;;;13.63;4.28;;;17.40;99.90;;;;;;5053969;28;20025;-66
2023/07/31 04:53:36;;;;;;;14.90;4.60;;;17.30;99.90;;;;;;5053866;28;20032;-66
2023/07/31 04:56:02;;;;;;;12.75;4.00;;;17.30;99.90;;;;;;5053519;28;20167;-67
2023/07/31 04:58:27;;;;;;;14.85;5.18;;;17.40;99.90;;;;;;5053568;28;20072;-67
2023/07/31 05:00:53;;;;;;;12.10;3.90;;;17.30;99.90;;;;;;5053549;28;20040;-66
2023/07/31 05:03:18;;;;;;;17.45;5.43;;;17.30;99.90;;;;;;5053549;28;20107;-67
2023/07/31 05:05:44;;;;;;;14.05;4.47;;;17.40;99.90;;;;;;5052852;28;20029;-67
2023/07/31 05:08:09;;;;;;;13.35;2.60;;;17.30;99.90;;;;;;5053293;28;20036;-67
2023/07/31 05:10:35;;;;;;;15.60;4.10;;;17.40;99.90;;;;;;5053322;28;20027;-66
2023/07/31 05:13:00;;;;;;;18.40;3.88;;;17.30;99.90;;;;;;5053216;28;20029;-66
2023/07/31 05:15:26;;;;;;;21.48;5.43;;;17.30;99.90;;;;;;5052937;28;20031;-66
2023/07/31 05:17:52;;;;;;;16.23;3.85;;;17.40;99.90;;;;;;5053275;28;20063;-68
2023/07/31 05:20:17;;;;;;;19.92;4.72;;;17.30;99.90;;;;;;5053358;28;20482;-67
2023/07/31 05:22:43;;;;;;;21.70;4.75;;;17.40;99.90;;;;;;5052972;28;20377;-67
2023/07/31 05:25:08;;;;;;;18.23;3.88;;;17.40;99.90;;;;;;5053180;28;20051;-67
2023/07/31 05:27:34;;;;;;;19.20;3.67;;;17.40;99.90;;;;;;5052927;28;20389;-67
2023/07/31 05:30:00;;;;;;;16.85;3.80;;;17.50;99.90;;;;;;5052900;28;20048;-67
2023/07/31 05:32:25;;;;;;;18.33;3.83;;;17.50;99.90;;;;;;5052863;28;20029;-67
2023/07/31 05:34:52;;;;;;;13.32;3.60;;;17.50;99.90;;;;;;5053303;28;20029;-68
2023/07/31 05:37:18;;;;;;;18.27;4.13;;;17.50;99.90;;;;;;5052916;28;20032;-68
2023/07/31 05:39:43;;;;;;;17.80;4.15;;;17.60;99.90;;;;;;5052562;28;20033;-68
2023/07/31 05:42:09;;;;;;;21.40;5.35;;;17.60;99.90;;;;;;5052562;28;20025;-68
2023/07/31 05:44:34;;;;;;;20.08;4.75;;;17.60;99.90;;;;;;5052579;28;20064;-68
2023/07/31 05:47:00;;;;;;;15.80;4.40;;;17.50;99.90;;;;;;5052922;28;20075;-68
2023/07/31 05:49:26;;;;;;;19.50;6.28;;;17.60;99.90;;;;;;5052771;28;20473;-68
2023/07/31 05:51:51;;;;;;;14.68;3.65;;;17.60;99.90;;;;;;5052693;28;20118;-68
2023/07/31 05:54:17;;;;;;;17.35;6.10;;;17.50;99.90;;;;;;5052752;28;20151;-68
2023/07/31 05:56:42;;;;;;;19.23;6.55;;;17.60;99.90;;;;;;5052798;28;20040;-68
2023/07/31 05:59:10;;;;;;;20.55;6.78;;;17.60;99.90;;;;;;5051520;28;20037;-68
2023/07/31 06:01:35;;;;;;;19.00;5.05;;;17.60;99.90;;;;;;5051270;28;20515;-68
2023/07/31 06:04:03;;;;;;;17.75;6.55;;;17.60;99.90;;;;;;5052430;28;20021;-68
2023/07/31 06:06:29;;;;;;;17.38;5.43;;;17.60;99.90;;;;;;5051228;28;20052;-68
2023/07/31 06:08:54;;;;;;;21.00;5.65;;;17.60;99.90;;;;;;5051792;28;20033;-68
2023/07/31 06:11:23;;;;;;;19.83;6.18;;;17.60;99.90;;;;;;5051125;28;20348;-68
2023/07/31 06:13:49;;;;;;;24.55;6.55;;;17.60;99.90;;;;;;5051709;28;20047;-68
2023/07/31 06:16:15;;;;;;;28.65;6.90;;;17.60;99.90;;;;;;5051404;28;20041;-68
2023/07/31 06:18:41;;;;;;;24.63;7.10;;;17.70;99.90;;;;;;5052091;28;20521;-69
2023/07/31 06:21:07;;;;;;;34.08;12.27;;;17.70;99.90;;;;;;5052339;28;20032;-68
2023/07/31 06:23:33;;;;;;;36.03;9.20;;;17.70;99.90;;;;;;5052023;28;20025;-68
2023/07/31 06:25:58;;;;;;;27.92;7.60;;;17.70;99.90;;;;;;5052203;28;20037;-68
2023/07/31 06:28:29;;;;;;;31.20;8.50;;;17.70;99.90;;;;;;5052070;28;20033;-68
2023/07/31 06:30:54;;;;;;;34.75;8.35;;;17.80;99.90;;;;;;5052478;28;20045;-68
2023/07/31 06:33:20;;;;;;;30.42;6.35;;;17.80;99.90;;;;;;5052159;28;20021;-67
2023/07/31 06:35:45;;;;;;;31.15;7.30;;;17.80;99.90;;;;;;5052120;28;20075;-68
2023/07/31 06:38:11;;;;;;;25.75;7.30;;;17.80;99.90;;;;;;5051894;28;20112;-68
2023/07/31 06:40:37;;;;;;;23.48;5.80;;;17.80;99.90;;;;;;5051961;28;20108;-68
2023/07/31 06:43:07;;;;;;;26.77;6.68;;;17.80;99.90;;;;;;5051640;28;20040;-67
2023/07/31 06:45:34;;;;;;;26.85;5.50;;;17.90;99.90;;;;;;5049364;28;20044;-67
2023/07/31 06:48:01;;;;;;;26.92;5.53;;;17.90;99.90;;;;;;5051663;28;20100;-68
2023/07/31 06:50:28;;;;;;;24.77;6.10;;;17.90;99.90;;;;;;5051320;28;20041;-68
2023/07/31 06:52:54;;;;;;;29.10;6.10;;;17.90;99.90;;;;;;5052172;28;20025;-68
2023/07/31 06:55:21;;;;;;;22.58;5.95;;;17.90;99.90;;;;;;5051874;28;20124;-67
2023/07/31 06:57:49;;;;;;;25.33;5.25;;;17.90;99.90;;;;;;5051052;28;20036;-67
2023/07/31 07:00:15;;;;;;;19.40;4.95;;;18.00;99.90;;;;;;5052143;28;20057;-67
2023/07/31 07:02:40;;;;;;;19.38;3.88;;;18.00;99.90;;;;;;5052246;28;20067;-68
2023/07/31 07:05:07;;;;;;;29.70;5.72;;;18.00;99.90;;;;;;5051946;28;20048;-68
2023/07/31 07:07:32;;;;;;;24.55;4.30;;;18.00;99.90;;;;;;5051449;28;20045;-68
2023/07/31 07:09:59;;;;;;;27.48;5.28;;;18.10;99.90;;;;;;5051437;28;20036;-68
2023/07/31 07:12:25;;;;;;;31.40;5.95;;;18.00;99.90;;;;;;5053512;28;20024;-68
2023/07/31 07:14:52;;;;;;;25.25;4.82;;;18.00;99.90;;;;;;5055775;28;20449;-68
2023/07/31 07:17:19;;;;;;;26.00;5.22;;;18.00;99.90;;;;;;5053378;28;20059;-68
2023/07/31 07:19:45;;;;;;;27.52;6.18;;;18.00;99.90;;;;;;5055620;28;20037;-68
2023/07/31 07:22:11;;;;;;;24.02;6.10;;;18.00;99.90;;;;;;5055582;28;20053;-68
2023/07/31 07:24:37;;;;;;;28.20;5.85;;;18.10;99.90;;;;;;5055483;28;20499;-68
2023/07/31 07:27:03;;;;;;;25.70;5.30;;;18.10;99.90;;;;;;5055592;28;20037;-68
2023/07/31 07:29:28;;;;;;;22.40;5.20;;;18.10;99.90;;;;;;5055553;28;20031;-68
2023/07/31 07:31:54;;;;;;;21.80;5.07;;;18.20;99.90;;;;;;5054038;28;20029;-68
2023/07/31 07:34:22;;;;;;;30.60;6.20;;;18.20;99.90;;;;;;5055014;28;20037;-68
2023/07/31 07:36:48;;;;;;;18.98;4.93;;;18.30;99.90;;;;;;5054937;28;20103;-68
2023/07/31 07:39:14;;;;;;;23.02;4.70;;;18.30;99.90;;;;;;5054562;28;20029;-68
2023/07/31 07:41:39;;;;;;;20.00;4.07;;;18.30;99.90;;;;;;5055224;28;20059;-68
2023/07/31 07:44:05;;;;;;;22.42;4.38;;;18.30;99.90;;;;;;5055077;28;20112;-67
2023/07/31 07:46:33;;;;;;;17.60;4.03;;;18.30;99.90;;;;;;5055033;28;20350;-68
2023/07/31 07:48:59;;;;;;;22.05;4.65;;;18.30;99.90;;;;;;5054970;28;20151;-67
2023/07/31 07:51:25;;;;;;;23.65;5.00;;;18.40;99.90;;;;;;5055183;28;20059;-67
2023/07/31 07:53:50;;;;;;;21.67;5.75;;;18.40;99.90;;;;;;5055026;28;20036;-68
2023/07/31 07:56:16;;;;;;;22.55;5.50;;;18.30;99.90;;;;;;5055053;28;20074;-68
2023/07/31 07:58:41;;;;;;;25.17;6.38;;;18.40;99.90;;;;;;5054793;28;20028;-68
2023/07/31 08:01:07;;;;;;;22.08;4.70;;;18.40;99.90;;;;;;5054826;28;20052;-68
2023/07/31 08:03:32;;;;;;;20.42;5.13;;;18.40;99.90;;;;;;5054685;28;20032;-68
2023/07/31 08:06:01;;;;;;;21.02;5.20;;;18.50;99.90;;;;;;5068722;28;20074;-68
2023/07/31 08:08:28;;;;;;;23.35;4.68;;;18.50;99.90;;;;;;5074345;28;20380;-68
2023/07/31 08:10:53;;;;;;;23.30;4.80;;;18.50;99.90;;;;;;5074194;28;20413;-68
2023/07/31 08:13:19;;;;;;;20.33;4.45;;;18.50;99.90;;;;;;5062090;28;20061;-68
2023/07/31 08:15:44;;;;;;;20.40;4.53;;;18.60;99.90;;;;;;5054200;28;20116;-68
2023/07/31 08:18:11;;;;;;;19.00;4.90;;;18.60;99.90;;;;;;5053010;28;20037;-68
2023/07/31 08:20:37;;;;;;;18.25;3.75;;;18.70;99.90;;;;;;5054523;28;20391;-68
2023/07/31 08:23:03;;;;;;;14.93;3.50;;;18.70;99.90;;;;;;5054064;28;20033;-68
2023/07/31 08:25:28;;;;;;;15.48;3.28;;;18.70;99.90;;;;;;5054319;28;20526;-68
2023/07/31 08:27:55;;;;;;;18.60;4.35;;;18.80;99.90;;;;;;5054275;28;20384;-68
2023/07/31 08:30:21;;;;;;;22.50;4.05;;;18.80;99.90;;;;;;5054205;28;20025;-68
2023/07/31 08:32:46;;;;;;;19.10;4.20;;;18.80;99.90;;;;;;5053961;28;20094;-67
2023/07/31 08:35:12;;;;;;;25.80;4.40;;;18.80;99.90;;;;;;5035846;28;20558;-66
2023/07/31 08:37:38;;;;;;;19.08;4.45;;;18.80;99.90;;;;;;5053780;28;20028;-67
2023/07/31 08:40:05;;;;;;;24.85;4.95;;;18.80;99.90;;;;;;5053729;28;20025;-67
2023/07/31 08:42:31;;;;;;;27.13;4.25;;;18.90;99.90;;;;;;5053885;28;20461;-66
2023/07/31 08:44:57;;;;;;;19.38;4.13;;;18.90;99.90;;;;;;5053846;28;20036;-67
2023/07/31 08:47:24;;;;;;;17.85;4.18;;;18.90;99.90;;;;;;5053662;28;20040;-67
2023/07/31 08:49:51;;;;;;;15.25;3.75;;;19.10;99.90;;;;;;5052844;28;20142;-67
2023/07/31 08:52:16;;;;;;;23.98;4.07;;;19.10;99.90;;;;;;5051998;28;20089;-67
2023/07/31 08:54:42;;;;;;;22.48;4.65;;;19.20;99.90;;;;;;5053838;28;20433;-67
2023/07/31 08:57:08;;;;;;;24.88;4.15;;;19.40;99.90;;;;;;5054087;28;20549;-67
2023/07/31 08:59:36;;;;;;;21.77;4.43;;;19.40;99.90;;;;;;5055228;28;20469;-66
2023/07/31 09:02:06;;;;;;;19.75;3.88;;;19.50;99.90;;;;;;5060549;28;20130;-67
2023/07/31 09:04:32;;;;;;;22.92;4.75;;;19.50;99.90;;;;;;5073406;28;20036;-67
2023/07/31 09:07:01;;;;;;;19.08;3.53;;;19.40;99.90;;;;;;5059551;28;20048;-66
2023/07/31 09:09:27;;;;;;;20.67;4.40;;;19.40;99.90;;;;;;5053352;28;20072;-67
2023/07/31 09:11:53;;;;;;;23.20;3.60;;;19.40;99.90;;;;;;5052296;28;20111;-68
2023/07/31 09:14:19;;;;;;;18.10;3.70;;;19.40;99.90;;;;;;5055816;28;20480;-66
2023/07/31 09:17:11;;;;;;;21.00;3.97;;;19.30;99.90;;;;;;5073398;28;20106;-66
2023/07/31 09:19:37;;;;;;;21.17;4.05;;;19.40;99.90;;;;;;5071264;28;20438;-66
2023/07/31 09:22:04;;;;;;;22.83;4.45;;;19.40;99.90;;;;;;5073096;28;20024;-67
2023/07/31 09:24:32;;;;;;;19.27;3.58;;;19.40;99.90;;;;;;5073294;28;20040;-67
2023/07/31 09:26:59;;;;;;;23.23;3.90;;;19.40;99.90;;;;;;5072501;28;20089;-66
2023/07/31 09:29:26;;;;;;;14.70;3.03;;;19.40;99.90;;;;;;5055709;28;20107;-66
2023/07/31 09:31:53;;;;;;;19.98;4.35;;;19.50;99.90;;;;;;5061000;28;20068;-67
2023/07/31 09:34:19;;;;;;;15.48;2.72;;;19.50;99.90;;;;;;5072540;28;20416;-67
2023/07/31 09:36:49;;;;;;;19.20;3.45;;;19.50;99.90;;;;;;5072730;28;20461;-67
2023/07/31 09:39:17;;;;;;;23.55;4.35;;;19.60;99.90;;;;;;5072552;28;20025;-66
2023/07/31 09:41:44;;;;;;;18.40;3.70;;;19.70;99.90;;;;;;5072504;28;20167;-66
2023/07/31 09:44:10;;;;;;;15.82;3.10;;;19.90;99.90;;;;;;5072032;28;20036;-66
2023/07/31 09:46:37;;;;;;;16.52;3.85;;;20.00;99.90;;;;;;5072929;28;20103;-66
2023/07/31 09:49:13;;;;;;;20.70;3.38;;;20.00;99.90;;;;;;5053586;28;20077;-67
2023/07/31 09:51:41;;;;;;;14.50;3.40;;;20.00;99.90;;;;;;5052730;28;20021;-67
2023/07/31 09:54:16;;;;;;;16.90;3.53;;;20.00;99.90;;;;;;5052689;28;20104;-67
2023/07/31 09:56:49;;;;;;;16.52;3.10;;;20.00;99.90;;;;;;5050739;28;20119;-67
2023/07/31 09:59:19;;;;;;;17.23;3.78;;;19.90;99.90;;;;;;5051097;28;20123;-67
2023/07/31 10:01:46;;;;;;;24.45;3.70;;;19.80;99.90;;;;;;5052381;28;20029;-67
2023/07/31 10:04:13;;;;;;;19.45;3.85;;;19.80;99.90;;;;;;5050534;28;20032;-67
2023/07/31 10:06:40;;;;;;;15.57;2.83;;;19.90;99.90;;;;;;5051265;28;20384;-67
2023/07/31 10:09:08;;;;;;;18.95;3.42;;;19.90;99.90;;;;;;5052346;28;20040;-67
2023/07/31 10:11:50;;;;;;;16.17;3.15;;;19.90;99.90;;;;;;5052524;28;20025;-67
2023/07/31 10:14:19;;;;;;;19.92;3.58;;;19.80;99.90;;;;;;5051484;28;20083;-66
2023/07/31 10:16:45;;;;;;;19.42;3.60;;;19.80;99.90;;;;;;5052557;28;20044;-66
2023/07/31 10:19:11;;;;;;;21.83;3.70;;;19.80;99.90;;;;;;5052648;28;20025;-66
2023/07/31 10:21:37;;;;;;;15.35;3.30;;;19.80;99.90;;;;;;5052185;28;20534;-67
2023/07/31 10:24:04;;;;;;;17.92;3.53;;;19.90;99.90;;;;;;5051373;28;20067;-66
2023/07/31 10:26:32;;;;;;;15.75;3.35;;;20.10;99.90;;;;;;5052135;28;20540;-66
2023/07/31 10:28:58;;;;;;;19.77;3.13;;;20.20;99.90;;;;;;5051319;28;20056;-66
2023/07/31 10:31:24;;;;;;;15.93;3.58;;;20.40;99.90;;;;;;5050884;28;20055;-66
2023/07/31 10:33:52;;;;;;;13.77;2.55;;;20.60;99.90;;;;;;5050856;28;20029;-66
2023/07/31 10:36:19;;;;;;;16.90;4.45;;;20.70;99.90;;;;;;5051702;28;20116;-67
2023/07/31 10:38:46;;;;;;;20.05;6.15;;;20.80;99.90;;;;;;5051102;28;20027;-66
2023/07/31 10:41:12;;;;;;;14.15;3.38;;;20.80;99.90;;;;;;5050774;28;20033;-66
2023/07/31 10:43:38;;;;;;;15.77;4.57;;;20.90;99.90;;;;;;5050826;28;20111;-66
2023/07/31 10:46:08;;;;;;;18.00;4.35;;;21.10;99.90;;;;;;5061490;28;20028;-66
2023/07/31 10:48:36;;;;;;;18.13;4.97;;;21.30;99.90;;;;;;5050866;28;20088;-67
2023/07/31 10:51:10;;;;;;;13.55;3.70;;;21.50;99.90;;;;;;5056258;28;20095;-66
2023/07/31 10:53:36;;;;;;;18.15;4.88;;;21.60;99.90;;;;;;5055914;28;20075;-66
2023/07/31 10:56:04;;;;;;;22.02;5.80;;;21.50;99.90;;;;;;5055679;28;20033;-66
2023/07/31 10:58:33;;;;;;;18.33;4.47;;;21.40;99.90;;;;;;5054161;28;20040;-66
2023/07/31 11:01:04;;;;;;;19.88;4.65;;;21.30;99.90;;;;;;5054391;28;20036;-66
2023/07/31 11:03:53;;;;;;;19.75;4.38;;;21.30;99.90;;;;;;5054821;28;20021;-66
2023/07/31 11:06:19;;;;;;;19.73;4.05;;;21.30;99.90;;;;;;5055490;28;20036;-66
2023/07/31 11:08:49;;;;;;;20.95;4.18;;;21.30;99.90;;;;;;5054248;28;20025;-66
2023/07/31 11:11:17;;;;;;;19.50;4.60;;;21.20;99.90;;;;;;5055866;28;20032;-66
2023/07/31 11:13:54;;;;;;;18.33;3.92;;;21.00;99.90;;;;;;5055668;28;20068;-66
2023/07/31 11:16:24;;;;;;;20.92;3.80;;;20.90;99.90;;;;;;5055947;28;20453;-67
2023/07/31 11:18:52;;;;;;;15.32;3.83;;;20.90;99.90;;;;;;5055952;28;20464;-67
2023/07/31 11:21:24;;;;;;;18.15;3.83;;;20.90;99.90;;;;;;5055790;28;20029;-67
2023/07/31 11:23:56;;;;;;;15.15;4.07;;;20.90;99.90;;;;;;5054265;28;20370;-66
2023/07/31 11:26:24;;;;;;;19.50;6.50;;;20.90;99.90;;;;;;5053382;28;20033;-66
2023/07/31 11:28:50;;;;;;;26.23;5.65;;;20.80;99.90;;;;;;5053068;28;20044;-67
2023/07/31 11:31:16;;;;;;;16.95;4.40;;;20.90;99.90;;;;;;5055303;28;20120;-67
2023/07/31 11:33:42;;;;;;;12.65;4.05;;;21.10;99.90;;;;;;5053623;28;20032;-67
2023/07/31 11:36:19;;;;;;;18.77;4.80;;;21.20;99.90;;;;;;5052735;28;20029;-66
2023/07/31 11:38:44;;;;;;;14.40;4.60;;;21.30;99.90;;;;;;5054981;28;20461;-67
2023/07/31 11:41:10;;;;;;;15.55;3.28;;;21.50;99.90;;;;;;5053954;28;20032;-66
2023/07/31 11:43:38;;;;;;;12.07;3.33;;;21.60;99.90;;;;;;5053513;28;20032;-67
2023/07/31 11:46:06;;;;;;;15.30;3.67;;;21.60;99.90;;;;;;5051227;28;20086;-66
2023/07/31 11:48:34;;;;;;;14.23;3.30;;;21.50;99.90;;;;;;5053171;28;20128;-66
2023/07/31 11:51:05;;;;;;;18.05;4.07;;;21.40;99.90;;;;;;5053544;28;20029;-67
2023/07/31 11:53:38;;;;;;;14.07;3.38;;;21.40;99.90;;;;;;5055049;28;20043;-67
2023/07/31 11:56:06;;;;;;;15.93;4.05;;;21.30;99.90;;;;;;5053484;28;20029;-67
2023/07/31 11:58:33;;;;;;;17.85;3.83;;;21.20;99.90;;;;;;5052155;28;20106;-67
2023/07/31 12:00:59;;;;;;;18.63;4.88;;;21.10;99.90;;;;;;5055097;28;20040;-67
2023/07/31 12:03:26;;;;;;;19.02;4.97;;;21.00;99.90;;;;;;5054729;28;20033;-68
2023/07/31 12:05:53;;;;;;;20.45;6.72;;;21.00;99.90;;;;;;5054495;28;20028;-67
2023/07/31 12:08:21;;;;;;;21.65;5.55;;;21.00;99.90;;;;;;5054740;28;20036;-67
2023/07/31 12:10:47;;;;;;;16.40;4.45;;;20.90;99.90;;;;;;5054703;28;20029;-66
2023/07/31 12:13:21;;;;;;;18.45;5.03;;;20.90;99.90;;;;;;5053508;28;20429;-67
2023/07/31 12:15:47;;;;;;;16.40;4.93;;;20.90;99.90;;;;;;5055072;28;20036;-67
2023/07/31 12:18:22;;;;;;;21.20;5.68;;;20.90;99.90;;;;;;5054409;28;20025;-67
2023/07/31 12:20:53;;;;;;;19.65;4.03;;;21.00;99.90;;;;;;5052019;28;20029;-67
2023/07/31 12:23:27;;;;;;;12.53;3.33;;;21.00;99.90;;;;;;5051963;28;20056;-67
2023/07/31 12:26:33;;;;;;;17.85;4.32;;;21.30;99.90;;;;;;5052603;28;20372;-67
2023/07/31 12:28:59;;;;;;;16.67;4.97;;;21.50;99.90;;;;;;5042992;28;20041;-67
2023/07/31 12:31:28;;;;;;;14.95;3.58;;;21.60;99.90;;;;;;5053597;28;20031;-66
2023/07/31 12:33:55;;;;;;;15.10;3.50;;;21.80;99.90;;;;;;5053717;28;20025;-67
2023/07/31 12:36:23;;;;;;;16.40;3.15;;;21.90;99.90;;;;;;5054227;28;20030;-67